createdAt,value
2022-12-11T00:00:28.646Z,9.20
2022-12-11T00:01:30.224Z,9.85
2022-12-11T00:02:33.223Z,10.23
2022-12-11T00:03:34.973Z,11.15
2022-12-11T00:04:36.593Z,9.73
2022-12-11T00:05:39.724Z,11.32
2022-12-11T00:06:41.335Z,10.02
2022-12-11T00:07:45.841Z,9.32
2022-12-11T00:08:47.518Z,10.20
2022-12-11T00:09:49.128Z,8.95
2022-12-11T00:10:50.778Z,7.95
2022-12-11T00:11:52.495Z,8.73
2022-12-11T00:12:54.120Z,8.95
2022-12-11T00:13:55.666Z,10.20
2022-12-11T00:14:57.263Z,10.57
2022-12-11T00:15:59.387Z,11.55
2022-12-11T00:17:00.932Z,8.77
2022-12-11T00:18:03.920Z,11.73
2022-12-11T00:19:05.799Z,9.25
2022-12-11T00:20:08.444Z,10.43
2022-12-11T00:21:13.625Z,7.88
2022-12-11T00:22:15.227Z,10.63
2022-12-11T00:23:16.881Z,10.77
2022-12-11T00:24:18.464Z,10.77
2022-12-11T00:25:20.103Z,10.80
2022-12-11T00:26:21.762Z,7.95
2022-12-11T00:27:23.353Z,10.77
2022-12-11T00:28:24.981Z,10.65
2022-12-11T00:29:26.590Z,11.48
2022-12-11T00:30:28.167Z,10.43
2022-12-11T00:31:30.034Z,10.32
2022-12-11T00:32:36.159Z,9.52
2022-12-11T00:33:45.142Z,10.63
2022-12-11T00:34:46.726Z,10.48
2022-12-11T00:35:48.324Z,9.05
2022-12-11T00:36:49.866Z,10.35
2022-12-11T00:37:51.416Z,8.02
2022-12-11T00:38:54.076Z,9.57
2022-12-11T00:39:55.624Z,8.88
2022-12-11T00:40:58.529Z,10.05
2022-12-11T00:42:00.102Z,8.52
2022-12-11T00:43:01.869Z,9.65
2022-12-11T00:44:04.652Z,9.57
2022-12-11T00:45:07.414Z,8.75
2022-12-11T00:46:09.262Z,8.77
2022-12-11T00:47:10.907Z,9.27
2022-12-11T00:48:13.172Z,10.05
2022-12-11T00:49:17.034Z,9.45
2022-12-11T00:50:18.682Z,8.05
2022-12-11T00:51:20.255Z,8.73
2022-12-11T00:52:21.862Z,4.47
2022-12-11T00:53:23.521Z,8.48
2022-12-11T00:54:25.136Z,9.45
2022-12-11T00:55:26.750Z,8.70
2022-12-11T00:56:28.288Z,9.95
2022-12-11T00:57:29.895Z,9.02
2022-12-11T00:58:31.479Z,9.15
2022-12-11T00:59:33.055Z,9.60
2022-12-11T01:00:34.815Z,9.00
2022-12-11T01:01:36.556Z,8.00
2022-12-11T01:02:38.337Z,7.90
2022-12-11T01:03:40.009Z,5.85
2022-12-11T01:04:42.933Z,7.43
2022-12-11T01:05:51.492Z,6.68
2022-12-11T01:06:53.077Z,8.30
2022-12-11T01:07:54.916Z,6.88
2022-12-11T01:08:56.975Z,8.18
2022-12-11T01:09:58.569Z,8.75
2022-12-11T01:11:05.089Z,8.40
2022-12-11T01:12:06.935Z,7.07
2022-12-11T01:13:08.558Z,8.13
2022-12-11T01:14:19.211Z,9.55
2022-12-11T01:15:22.243Z,9.63
2022-12-11T01:16:23.845Z,9.52
2022-12-11T01:17:25.473Z,8.45
2022-12-11T01:18:27.823Z,6.53
2022-12-11T01:19:29.468Z,6.00
2022-12-11T01:20:32.943Z,6.97
2022-12-11T01:21:34.584Z,7.28
2022-12-11T01:22:36.171Z,6.10
2022-12-11T01:23:38.228Z,6.63
2022-12-11T01:24:39.793Z,6.88
2022-12-11T01:25:42.460Z,6.50
2022-12-11T01:26:44.127Z,7.70
2022-12-11T01:27:45.827Z,7.32
2022-12-11T01:28:49.896Z,6.28
2022-12-11T01:29:51.478Z,6.75
2022-12-11T01:30:53.094Z,7.18
2022-12-11T01:31:54.705Z,8.27
2022-12-11T01:32:56.307Z,7.43
2022-12-11T01:33:57.942Z,6.18
2022-12-11T01:34:59.548Z,7.55
2022-12-11T01:36:07.347Z,8.23
2022-12-11T01:37:08.974Z,8.80
2022-12-11T01:38:10.570Z,8.27
2022-12-11T01:39:12.120Z,8.52
2022-12-11T01:40:15.898Z,8.90
2022-12-11T01:41:18.189Z,7.90
2022-12-11T01:42:20.614Z,9.35
2022-12-11T01:43:22.193Z,8.43
2022-12-11T01:45:01.193Z,9.13
2022-12-11T01:46:02.957Z,8.80
2022-12-11T01:47:04.711Z,9.25
2022-12-11T01:48:10.898Z,8.85
2022-12-11T01:49:15.289Z,9.63
2022-12-11T01:50:17.479Z,9.68
2022-12-11T01:51:20.638Z,9.73
2022-12-11T01:52:22.653Z,9.80
2022-12-11T01:53:28.508Z,10.38
2022-12-11T01:54:30.591Z,10.30
2022-12-11T01:55:33.101Z,9.50
2022-12-11T01:56:36.315Z,10.60
2022-12-11T01:57:42.945Z,9.77
2022-12-11T01:58:48.842Z,10.07
2022-12-11T01:59:50.398Z,10.27
2022-12-11T02:00:53.132Z,10.13
2022-12-11T02:01:59.416Z,9.55
2022-12-11T02:03:00.908Z,10.52
2022-12-11T02:04:02.739Z,8.38
2022-12-11T02:05:06.340Z,10.25
2022-12-11T02:06:31.901Z,11.73
2022-12-11T02:07:38.816Z,10.27
2022-12-11T02:08:40.401Z,10.27
2022-12-11T02:09:44.990Z,9.80
2022-12-11T02:10:56.124Z,9.73
2022-12-11T02:12:19.867Z,10.55
2022-12-11T02:13:29.795Z,10.27
2022-12-11T02:14:43.692Z,10.00
2022-12-11T02:15:50.920Z,9.50
2022-12-11T02:16:59.676Z,10.73
2022-12-11T02:18:14.458Z,9.23
2022-12-11T02:19:30.757Z,10.18
2022-12-11T02:20:37.984Z,10.43
2022-12-11T02:21:46.143Z,10.80
2022-12-11T02:23:02.219Z,9.88
2022-12-11T02:24:32.123Z,10.60
2022-12-11T02:25:41.215Z,10.27
2022-12-11T02:27:00.288Z,10.68
2022-12-11T02:28:23.735Z,9.65
2022-12-11T02:29:32.305Z,10.75
2022-12-11T02:30:39.771Z,10.43
2022-12-11T02:31:46.767Z,9.90
2022-12-11T02:32:54.746Z,10.23
2022-12-11T02:34:01.856Z,9.07
2022-12-11T02:35:11.767Z,9.48
2022-12-11T02:36:16.136Z,9.27
2022-12-11T02:37:21.620Z,9.38
2022-12-11T02:38:28.599Z,9.52
2022-12-11T02:39:32.160Z,8.80
2022-12-11T02:40:37.344Z,10.23
2022-12-11T02:41:43.134Z,9.95
2022-12-11T02:42:48.108Z,9.40
2022-12-11T02:43:52.171Z,10.60
2022-12-11T02:44:55.589Z,10.48
2022-12-11T02:45:59.083Z,9.63
2022-12-11T02:47:02.828Z,9.43
2022-12-11T02:48:06.578Z,10.00
2022-12-11T02:49:10.144Z,9.35
2022-12-11T02:50:15.926Z,9.77
2022-12-11T02:51:22.012Z,9.85
2022-12-11T02:52:25.450Z,8.52
2022-12-11T02:53:32.337Z,6.97
2022-12-11T02:54:37.924Z,8.52
2022-12-11T02:55:41.822Z,8.00
2022-12-11T02:56:46.398Z,8.57
2022-12-11T02:57:51.485Z,8.88
2022-12-11T02:58:59.063Z,7.43
2022-12-11T03:00:00.681Z,6.07
2022-12-11T03:01:02.317Z,7.90
2022-12-11T03:02:04.647Z,7.45
2022-12-11T03:03:06.474Z,8.30
2022-12-11T03:04:08.244Z,7.72
2022-12-11T03:05:12.419Z,8.60
2022-12-11T03:06:17.827Z,7.80
2022-12-11T03:07:23.653Z,7.53
2022-12-11T03:08:25.276Z,7.95
2022-12-11T03:09:28.816Z,8.20
2022-12-11T03:10:30.385Z,8.15
2022-12-11T03:11:31.984Z,7.63
2022-12-11T03:12:36.864Z,8.73
2022-12-11T03:13:39.076Z,8.88
2022-12-11T03:14:42.797Z,8.15
2022-12-11T03:15:56.102Z,8.23
2022-12-11T03:17:13.678Z,8.13
2022-12-11T03:18:21.744Z,7.63
2022-12-11T03:19:31.902Z,8.73
2022-12-11T03:20:40.401Z,8.65
2022-12-11T03:21:46.714Z,8.20
2022-12-11T03:23:02.616Z,7.50
2022-12-11T03:24:10.066Z,7.85
2022-12-11T03:25:18.088Z,7.85
2022-12-11T03:26:20.961Z,8.45
2022-12-11T03:27:29.481Z,8.68
2022-12-11T03:28:39.401Z,8.20
2022-12-11T03:29:52.049Z,8.88
2022-12-11T03:30:54.519Z,8.23
2022-12-11T03:32:01.440Z,8.15
2022-12-11T03:33:06.334Z,7.35
2022-12-11T03:34:14.085Z,8.18
2022-12-11T03:35:20.171Z,8.07
2022-12-11T03:36:26.953Z,7.93
2022-12-11T03:37:33.393Z,6.72
2022-12-11T03:38:39.086Z,5.57
2022-12-11T03:39:46.219Z,5.70
2022-12-11T03:40:50.117Z,5.18
2022-12-11T03:41:53.334Z,6.18
2022-12-11T03:42:57.364Z,5.80
2022-12-11T03:43:59.236Z,5.05
2022-12-11T03:45:04.436Z,6.20
2022-12-11T03:46:09.430Z,6.43
2022-12-11T03:47:14.331Z,6.43
2022-12-11T03:48:17.730Z,6.45
2022-12-11T03:49:24.270Z,5.82
2022-12-11T03:50:30.588Z,6.10
2022-12-11T03:51:34.230Z,5.03
2022-12-11T03:52:42.419Z,5.65
2022-12-11T03:53:48.128Z,5.57
2022-12-11T03:54:50.889Z,6.05
2022-12-11T03:55:54.024Z,6.55
2022-12-11T03:56:57.952Z,5.78
2022-12-11T03:57:59.520Z,5.85
2022-12-11T03:59:01.054Z,5.93
2022-12-11T04:00:04.750Z,6.22
2022-12-11T04:01:08.758Z,5.63
2022-12-11T04:02:10.336Z,5.07
2022-12-11T04:03:13.835Z,6.15
2022-12-11T04:04:15.864Z,5.97
2022-12-11T04:05:17.579Z,5.60
2022-12-11T04:06:19.228Z,6.20
2022-12-11T04:07:20.799Z,6.60
2022-12-11T04:08:23.205Z,6.68
2022-12-11T04:09:24.797Z,6.10
2022-12-11T04:10:26.700Z,5.88
2022-12-11T04:11:28.236Z,5.30
2022-12-11T04:12:29.818Z,6.20
2022-12-11T04:13:31.355Z,6.13
2022-12-11T04:14:32.955Z,6.05
2022-12-11T04:15:37.001Z,6.55
2022-12-11T04:16:38.702Z,6.30
2022-12-11T04:17:40.236Z,6.13
2022-12-11T04:18:43.118Z,7.07
2022-12-11T04:19:44.631Z,6.72
2022-12-11T04:20:46.182Z,6.50
2022-12-11T04:21:47.741Z,7.18
2022-12-11T04:22:49.335Z,7.07
2022-12-11T04:23:51.045Z,7.78
2022-12-11T04:24:52.626Z,8.82
2022-12-11T04:25:54.157Z,10.13
2022-12-11T04:26:55.681Z,11.35
2022-12-11T04:27:57.221Z,9.95
2022-12-11T04:28:58.778Z,8.55
2022-12-11T04:30:00.324Z,8.13
2022-12-11T04:31:04.234Z,8.50
2022-12-11T04:32:05.974Z,10.50
2022-12-11T04:33:07.468Z,10.07
2022-12-11T04:34:09.249Z,10.45
2022-12-11T04:35:12.213Z,10.32
2022-12-11T04:36:14.781Z,9.85
2022-12-11T04:37:16.350Z,8.98
2022-12-11T04:38:17.955Z,8.60
2022-12-11T04:39:19.484Z,8.50
2022-12-11T04:40:21.509Z,8.45
2022-12-11T04:41:23.052Z,9.00
2022-12-11T04:42:24.621Z,7.55
2022-12-11T04:43:26.185Z,8.43
2022-12-11T04:44:27.735Z,8.20
2022-12-11T04:45:29.267Z,8.77
2022-12-11T04:46:32.236Z,9.43
2022-12-11T04:47:34.970Z,8.60
2022-12-11T04:48:37.721Z,8.43
2022-12-11T04:49:39.307Z,7.93
2022-12-11T04:50:40.831Z,7.95
2022-12-11T04:51:42.346Z,7.90
2022-12-11T04:52:45.498Z,8.30
2022-12-11T04:53:47.046Z,8.13
2022-12-11T04:54:48.724Z,6.93
2022-12-11T04:55:50.270Z,7.78
2022-12-11T04:56:51.833Z,7.80
2022-12-11T04:57:53.369Z,7.55
2022-12-11T04:58:54.897Z,8.07
2022-12-11T04:59:56.438Z,7.63
2022-12-11T05:00:58.000Z,7.82
2022-12-11T05:02:01.205Z,8.20
2022-12-11T05:03:08.283Z,7.78
2022-12-11T05:04:09.852Z,7.90
2022-12-11T05:05:11.785Z,8.18
2022-12-11T05:06:13.816Z,7.75
2022-12-11T05:07:15.337Z,8.05
2022-12-11T05:08:16.977Z,7.38
2022-12-11T05:09:23.548Z,7.35
2022-12-11T05:10:25.176Z,8.18
2022-12-11T05:11:26.675Z,8.25
2022-12-11T05:12:28.218Z,8.52
2022-12-11T05:13:30.344Z,8.15
2022-12-11T05:14:31.944Z,8.00
2022-12-11T05:15:33.509Z,8.43
2022-12-11T05:16:35.006Z,8.25
2022-12-11T05:17:37.868Z,7.78
2022-12-11T05:18:39.446Z,8.30
2022-12-11T05:19:41.084Z,8.85
2022-12-11T05:20:42.600Z,8.48
2022-12-11T05:21:44.139Z,8.52
2022-12-11T05:22:45.643Z,8.75
2022-12-11T05:23:47.228Z,9.65
2022-12-11T05:24:48.771Z,8.52
2022-12-11T05:25:53.529Z,8.93
2022-12-11T05:26:55.100Z,8.85
2022-12-11T05:27:56.637Z,8.13
2022-12-11T05:28:58.221Z,8.40
2022-12-11T05:29:59.864Z,8.48
2022-12-11T05:31:03.678Z,8.07
2022-12-11T05:32:05.464Z,8.23
2022-12-11T05:33:08.323Z,7.03
2022-12-11T05:34:09.850Z,8.13
2022-12-11T05:35:11.609Z,6.85
2022-12-11T05:36:16.468Z,6.75
2022-12-11T05:37:18.000Z,6.30
2022-12-11T05:38:20.078Z,6.40
2022-12-11T05:39:21.698Z,6.65
2022-12-11T05:40:23.212Z,6.90
2022-12-11T05:41:26.525Z,6.75
2022-12-11T05:42:30.880Z,6.00
2022-12-11T05:43:34.088Z,7.82
2022-12-11T05:44:35.686Z,8.02
2022-12-11T05:45:37.499Z,8.77
2022-12-11T05:46:39.606Z,8.70
2022-12-11T05:47:41.221Z,8.82
2022-12-11T05:48:45.931Z,8.52
2022-12-11T05:49:47.481Z,8.30
2022-12-11T05:50:57.596Z,8.57
2022-12-11T05:51:59.235Z,8.48
2022-12-11T05:53:00.728Z,9.23
2022-12-11T05:54:03.399Z,8.38
2022-12-11T05:55:05.648Z,7.70
2022-12-11T05:56:10.141Z,8.35
2022-12-11T05:57:11.675Z,8.55
2022-12-11T05:58:13.231Z,9.18
2022-12-11T05:59:14.743Z,8.02
2022-12-11T06:00:16.276Z,8.65
2022-12-11T06:01:19.500Z,8.90
2022-12-11T06:02:21.157Z,8.18
2022-12-11T06:03:22.813Z,8.57
2022-12-11T06:04:25.815Z,8.30
2022-12-11T06:05:27.309Z,9.25
2022-12-11T06:06:29.050Z,8.50
2022-12-11T06:07:30.600Z,7.47
2022-12-11T06:08:32.350Z,8.63
2022-12-11T06:09:33.846Z,8.60
2022-12-11T06:10:35.380Z,9.10
2022-12-11T06:11:36.911Z,7.95
2022-12-11T06:12:38.437Z,8.40
2022-12-11T06:13:40.353Z,9.15
2022-12-11T06:14:41.948Z,9.05
2022-12-11T06:15:43.450Z,9.13
2022-12-11T06:16:45.078Z,8.65
2022-12-11T06:17:46.720Z,10.90
2022-12-11T06:18:48.776Z,10.13
2022-12-11T06:19:51.626Z,9.73
2022-12-11T06:20:53.156Z,10.43
2022-12-11T06:21:54.736Z,10.93
2022-12-11T06:22:56.281Z,10.30
2022-12-11T06:24:00.148Z,10.98
2022-12-11T06:25:01.680Z,10.27
2022-12-11T06:26:03.713Z,9.52
2022-12-11T06:27:05.370Z,8.95
2022-12-11T06:28:06.983Z,9.00
2022-12-11T06:29:12.643Z,7.53
2022-12-11T06:30:14.632Z,7.47
2022-12-11T06:31:16.898Z,8.35
2022-12-11T06:32:18.529Z,7.35
2022-12-11T06:33:20.051Z,7.43
2022-12-11T06:34:21.587Z,7.50
2022-12-11T06:35:24.703Z,6.55
2022-12-11T06:36:26.261Z,6.60
2022-12-11T06:37:27.830Z,6.85
2022-12-11T06:38:29.355Z,7.63
2022-12-11T06:39:31.097Z,6.60
2022-12-11T06:40:32.666Z,7.00
2022-12-11T06:41:34.233Z,6.72
2022-12-11T06:42:35.979Z,7.10
2022-12-11T06:43:39.985Z,6.82
2022-12-11T06:44:41.703Z,6.90
2022-12-11T06:45:43.446Z,7.00
2022-12-11T06:46:45.079Z,7.50
2022-12-11T06:47:46.675Z,7.15
2022-12-11T06:48:50.721Z,7.38
2022-12-11T06:49:52.697Z,6.90
2022-12-11T06:50:55.580Z,7.53
2022-12-11T06:51:57.139Z,6.80
2022-12-11T06:52:58.720Z,7.18
2022-12-11T06:54:00.273Z,8.00
2022-12-11T06:55:01.835Z,7.35
2022-12-11T06:56:04.500Z,7.57
2022-12-11T06:57:06.088Z,7.35
2022-12-11T06:58:08.296Z,6.90
2022-12-11T06:59:11.385Z,6.85
2022-12-11T07:00:14.385Z,7.43
2022-12-11T07:01:18.377Z,7.05
2022-12-11T07:02:20.754Z,7.30
2022-12-11T07:03:22.463Z,7.28
2022-12-11T07:04:24.051Z,8.13
2022-12-11T07:05:25.686Z,8.60
2022-12-11T07:06:30.034Z,8.10
2022-12-11T07:07:40.394Z,7.22
2022-12-11T07:08:41.985Z,7.30
2022-12-11T07:09:43.515Z,7.47
2022-12-11T07:10:45.047Z,7.88
2022-12-11T07:11:49.120Z,7.43
2022-12-11T07:12:52.609Z,8.30
2022-12-11T07:13:54.129Z,6.30
2022-12-11T07:14:55.704Z,8.30
2022-12-11T07:15:58.341Z,8.57
2022-12-11T07:16:59.971Z,7.57
2022-12-11T07:18:01.523Z,7.85
2022-12-11T07:19:03.245Z,7.13
2022-12-11T07:20:05.744Z,6.85
2022-12-11T07:21:08.049Z,7.60
2022-12-11T07:22:10.933Z,7.65
2022-12-11T07:23:12.487Z,6.30
2022-12-11T07:24:14.059Z,7.70
2022-12-11T07:25:15.806Z,7.53
2022-12-11T07:26:19.355Z,8.45
2022-12-11T07:27:20.853Z,7.20
2022-12-11T07:28:22.550Z,7.72
2022-12-11T07:29:24.114Z,8.43
2022-12-11T07:30:25.620Z,7.68
2022-12-11T07:31:28.848Z,8.02
2022-12-11T07:32:30.538Z,7.85
2022-12-11T07:33:32.117Z,9.20
2022-12-11T07:34:33.664Z,7.90
2022-12-11T07:35:35.312Z,7.95
2022-12-11T07:36:36.834Z,8.55
2022-12-11T07:37:41.321Z,9.60
2022-12-11T07:38:42.835Z,9.15
2022-12-11T07:39:44.364Z,7.90
2022-12-11T07:40:45.902Z,8.40
2022-12-11T07:41:47.408Z,7.40
2022-12-11T07:42:48.994Z,7.28
2022-12-11T07:43:50.555Z,7.80
2022-12-11T07:44:52.071Z,7.55
2022-12-11T07:45:53.623Z,6.68
2022-12-11T07:46:55.180Z,6.78
2022-12-11T07:47:56.686Z,7.90
2022-12-11T07:48:58.289Z,9.38
2022-12-11T07:49:59.818Z,8.18
2022-12-11T07:51:08.529Z,9.05
2022-12-11T07:52:10.096Z,8.52
2022-12-11T07:53:12.975Z,7.80
2022-12-11T07:54:15.899Z,7.57
2022-12-11T07:55:17.467Z,5.25
2022-12-11T07:56:19.425Z,5.13
2022-12-11T07:57:21.000Z,6.07
2022-12-11T07:58:22.524Z,5.40
2022-12-11T07:59:24.022Z,6.57
2022-12-11T08:00:26.098Z,6.75
2022-12-11T08:01:30.044Z,7.07
2022-12-11T08:02:36.910Z,7.22
2022-12-11T08:03:39.071Z,5.50
2022-12-11T08:04:40.585Z,6.25
2022-12-11T08:05:47.899Z,4.95
2022-12-11T08:06:49.458Z,7.35
2022-12-11T08:07:51.041Z,6.20
2022-12-11T08:08:54.600Z,6.53
2022-12-11T08:09:56.121Z,6.68
2022-12-11T08:11:00.773Z,6.07
2022-12-11T08:12:02.310Z,5.63
2022-12-11T08:13:03.873Z,6.10
2022-12-11T08:14:05.874Z,6.65
2022-12-11T08:15:08.597Z,6.70
2022-12-11T08:16:12.364Z,7.32
2022-12-11T08:17:13.888Z,7.30
2022-12-11T08:18:15.438Z,8.60
2022-12-11T08:19:17.004Z,7.80
2022-12-11T08:20:18.578Z,7.95
2022-12-11T08:21:22.358Z,3.85
2022-12-11T08:22:23.904Z,4.53
2022-12-11T08:23:25.462Z,4.95
2022-12-11T08:24:28.331Z,7.50
2022-12-11T08:25:29.882Z,7.30
2022-12-11T08:26:31.584Z,8.15
2022-12-11T08:27:33.145Z,7.43
2022-12-11T08:28:35.136Z,6.25
2022-12-11T08:29:37.279Z,8.43
2022-12-11T08:30:39.253Z,8.23
2022-12-11T08:31:41.893Z,6.88
2022-12-11T08:32:43.461Z,9.13
2022-12-11T08:33:45.331Z,8.63
2022-12-11T08:34:46.816Z,8.32
2022-12-11T08:35:48.370Z,7.68
2022-12-11T08:36:49.931Z,7.38
2022-12-11T08:37:51.594Z,8.80
2022-12-11T08:38:54.986Z,7.20
2022-12-11T08:39:58.413Z,8.98
2022-12-11T08:41:08.555Z,7.78
2022-12-11T08:42:10.244Z,6.00
2022-12-11T08:43:11.786Z,7.45
2022-12-11T08:44:16.707Z,5.68
2022-12-11T08:45:18.589Z,7.47
2022-12-11T08:46:20.726Z,6.40
2022-12-11T08:47:22.279Z,6.82
2022-12-11T08:48:23.785Z,7.10
2022-12-11T08:49:27.592Z,5.28
2022-12-11T08:50:32.830Z,6.53
2022-12-11T08:51:34.372Z,7.07
2022-12-11T08:52:35.914Z,6.90
2022-12-11T08:53:37.529Z,5.63
2022-12-11T08:54:39.150Z,7.63
2022-12-11T08:55:42.023Z,6.68
2022-12-11T08:56:43.535Z,7.53
2022-12-11T08:57:45.110Z,8.85
2022-12-11T08:58:47.437Z,6.78
2022-12-11T08:59:49.069Z,4.45
2022-12-11T09:00:50.701Z,5.57
2022-12-11T09:01:52.389Z,6.05
2022-12-11T09:02:54.024Z,7.82
2022-12-11T09:03:56.623Z,7.25
2022-12-11T09:04:58.150Z,7.32
2022-12-11T09:05:59.786Z,6.68
2022-12-11T09:07:01.392Z,7.65
2022-12-11T09:08:03.020Z,8.68
2022-12-11T09:09:05.129Z,7.78
2022-12-11T09:10:08.517Z,7.30
2022-12-11T09:11:14.161Z,7.03
2022-12-11T09:12:15.683Z,7.43
2022-12-11T09:13:17.290Z,6.60
2022-12-11T09:14:18.871Z,5.63
2022-12-11T09:15:20.490Z,8.00
2022-12-11T09:16:24.188Z,7.35
2022-12-11T09:17:25.734Z,6.93
2022-12-11T09:20:30.257Z,5.80
2022-12-11T09:21:31.900Z,7.30
2022-12-11T09:22:33.564Z,6.57
2022-12-11T09:23:35.176Z,7.13
2022-12-11T09:24:36.765Z,7.38
2022-12-11T09:25:39.965Z,7.07
2022-12-11T09:26:42.907Z,8.30
2022-12-11T09:27:44.492Z,7.53
2022-12-11T09:28:47.273Z,6.88
2022-12-11T09:29:49.043Z,7.72
2022-12-11T09:30:51.149Z,7.82
2022-12-11T09:31:52.678Z,7.32
2022-12-11T09:32:54.192Z,7.15
2022-12-11T09:33:58.371Z,9.10
2022-12-11T09:34:59.869Z,7.05
2022-12-11T09:36:02.345Z,8.05
2022-12-11T09:37:03.858Z,8.05
2022-12-11T09:38:05.397Z,8.02
2022-12-11T09:39:08.715Z,7.18
2022-12-11T09:40:11.804Z,8.48
2022-12-11T09:41:29.464Z,8.60
2022-12-11T09:42:46.881Z,7.90
2022-12-11T09:43:58.102Z,7.18
2022-12-11T09:45:01.805Z,6.72
2022-12-11T09:46:06.975Z,7.22
2022-12-11T09:47:18.982Z,7.35
2022-12-11T09:48:24.014Z,7.38
2022-12-11T09:49:31.880Z,6.35
2022-12-11T09:50:34.799Z,6.85
2022-12-11T09:51:42.331Z,7.43
2022-12-11T09:52:54.487Z,7.35
2022-12-11T09:54:00.102Z,6.95
2022-12-11T09:55:10.088Z,7.00
2022-12-11T09:56:17.886Z,6.63
2022-12-11T09:57:43.543Z,7.95
2022-12-11T09:58:57.993Z,7.68
2022-12-11T10:00:16.136Z,6.63
2022-12-11T10:01:24.585Z,6.55
2022-12-11T10:02:41.004Z,6.70
2022-12-11T10:04:08.288Z,6.63
2022-12-11T10:05:17.656Z,6.97
2022-12-11T10:06:28.204Z,7.07
2022-12-11T10:07:36.030Z,7.30
2022-12-11T10:08:45.458Z,6.47
2022-12-11T10:09:51.566Z,7.72
2022-12-11T10:11:02.188Z,6.78
2022-12-11T10:12:18.790Z,8.32
2022-12-11T10:13:37.338Z,7.30
2022-12-11T10:14:52.031Z,6.88
2022-12-11T10:16:00.381Z,7.13
2022-12-11T10:17:09.874Z,7.82
2022-12-11T10:18:14.775Z,7.90
2022-12-11T10:19:20.310Z,7.80
2022-12-11T10:20:24.407Z,6.82
2022-12-11T10:21:26.590Z,6.60
2022-12-11T10:22:32.666Z,7.22
2022-12-11T10:23:38.489Z,6.57
2022-12-11T10:26:07.707Z,6.50
2022-12-11T10:27:16.378Z,6.82
2022-12-11T10:28:20.317Z,6.47
2022-12-11T10:29:23.638Z,6.47
2022-12-11T10:30:31.598Z,6.28
2022-12-11T10:31:42.614Z,7.35
2022-12-11T10:32:51.496Z,6.63
2022-12-11T10:33:59.222Z,6.75
2022-12-11T10:35:05.168Z,6.85
2022-12-11T10:36:08.558Z,6.63
2022-12-11T10:37:10.115Z,7.22
2022-12-11T10:38:15.510Z,6.97
2022-12-11T10:39:19.140Z,7.18
2022-12-11T10:40:21.981Z,6.75
2022-12-11T10:41:37.458Z,8.90
2022-12-11T10:42:44.053Z,9.05
2022-12-11T10:43:49.264Z,10.02
2022-12-11T10:45:00.912Z,10.20
2022-12-11T10:46:03.093Z,10.50
2022-12-11T10:47:07.098Z,10.45
2022-12-11T10:48:11.090Z,10.38
2022-12-11T10:49:24.598Z,11.00
2022-12-11T10:50:26.420Z,10.75
2022-12-11T10:51:34.843Z,11.60
2022-12-11T10:52:42.247Z,10.98
2022-12-11T10:53:49.110Z,12.45
2022-12-11T10:54:58.435Z,11.07
2022-12-11T10:56:01.637Z,11.73
2022-12-11T10:57:05.066Z,12.10
2022-12-11T10:58:06.826Z,12.57
2022-12-11T10:59:24.111Z,13.63
2022-12-11T11:00:32.104Z,12.93
2022-12-11T11:01:33.797Z,12.48
2022-12-11T11:02:37.485Z,13.07
2022-12-11T11:03:53.315Z,12.88
2022-12-11T11:04:57.137Z,13.05
2022-12-11T11:06:04.459Z,13.27
2022-12-11T11:07:13.458Z,13.15
2022-12-11T11:08:23.917Z,13.85
2022-12-11T11:09:30.005Z,14.93
2022-12-11T11:10:31.512Z,17.55
2022-12-11T11:11:36.940Z,14.45
2022-12-11T11:12:40.973Z,14.07
2022-12-11T11:13:42.474Z,13.25
2022-12-11T11:14:44.006Z,13.75
2022-12-11T11:15:47.198Z,13.27
2022-12-11T11:16:50.719Z,16.20
2022-12-11T11:17:55.999Z,15.70
2022-12-11T11:18:58.070Z,15.30
2022-12-11T11:20:04.560Z,14.93
2022-12-11T11:21:06.614Z,14.43
2022-12-11T11:22:14.818Z,14.38
2022-12-11T11:23:18.670Z,13.18
2022-12-11T11:24:28.563Z,13.98
2022-12-11T11:25:32.704Z,12.85
2022-12-11T11:27:11.042Z,12.43
2022-12-11T11:27:57.699Z,12.73
2022-12-11T11:28:59.298Z,12.25
2022-12-11T11:30:04.273Z,11.85
2022-12-11T11:31:10.710Z,11.65
2022-12-11T11:32:20.077Z,11.95
2022-12-11T11:33:23.677Z,12.70
2022-12-11T11:34:25.266Z,12.75
2022-12-11T11:35:28.259Z,13.52
2022-12-11T11:36:32.366Z,13.60
2022-12-11T11:37:34.440Z,12.30
2022-12-11T11:38:40.855Z,12.77
2022-12-11T11:39:43.847Z,18.92
2022-12-11T11:40:51.408Z,15.63
2022-12-11T11:42:01.714Z,18.90
2022-12-11T11:43:13.304Z,19.20
2022-12-11T11:44:19.874Z,16.15
2022-12-11T11:45:25.264Z,16.13
2022-12-11T11:46:32.916Z,17.50
2022-12-11T11:47:39.613Z,19.25
2022-12-11T11:48:50.892Z,17.67
2022-12-11T11:50:00.017Z,16.23
2022-12-11T11:51:12.636Z,13.77
2022-12-11T11:52:19.309Z,13.82
2022-12-11T11:53:27.022Z,13.73
2022-12-11T11:54:33.262Z,14.10
2022-12-11T11:55:46.553Z,14.80
2022-12-11T11:56:54.012Z,14.77
2022-12-11T11:58:00.982Z,16.17
2022-12-11T11:59:11.792Z,13.60
2022-12-11T12:00:20.114Z,13.63
2022-12-11T12:01:22.217Z,11.48
2022-12-11T12:02:25.339Z,10.48
2022-12-11T12:03:28.937Z,2.45
2022-12-11T12:04:34.082Z,1.80
2022-12-11T12:05:42.538Z,1.65
2022-12-11T12:12:58.017Z,3.38
2022-12-11T12:14:28.766Z,3.20
2022-12-11T12:15:38.594Z,3.03
2022-12-11T12:16:53.763Z,3.20
2022-12-11T12:18:04.039Z,2.85
2022-12-11T12:19:14.088Z,3.28
2022-12-11T12:20:24.425Z,3.55
2022-12-11T12:21:33.546Z,4.10
2022-12-11T12:22:50.387Z,3.90
2022-12-11T12:24:05.405Z,3.65
2022-12-11T12:25:16.447Z,3.70
2022-12-11T12:26:29.393Z,3.55
2022-12-11T12:27:55.269Z,3.88
2022-12-11T12:29:09.048Z,4.18
2022-12-11T12:30:20.396Z,4.20
2022-12-11T12:31:41.391Z,4.20
2022-12-11T12:33:03.477Z,4.13
2022-12-11T12:34:14.084Z,4.32
2022-12-11T12:35:33.737Z,4.18
2022-12-11T12:36:45.681Z,4.53
2022-12-11T12:37:56.955Z,4.65
2022-12-11T12:39:01.781Z,4.90
2022-12-11T12:40:13.955Z,4.47
2022-12-11T12:41:20.845Z,6.20
2022-12-11T12:42:35.004Z,6.63
2022-12-11T12:44:00.311Z,6.10
2022-12-11T12:45:10.712Z,4.40
2022-12-11T12:46:26.629Z,5.30
2022-12-11T12:47:32.323Z,4.00
2022-12-11T12:48:35.448Z,5.07
2022-12-11T12:49:40.799Z,5.28
2022-12-11T12:50:44.696Z,5.30
2022-12-11T12:51:47.267Z,5.32
2022-12-11T12:52:50.055Z,6.10
2022-12-11T12:53:55.904Z,7.05
2022-12-11T12:55:01.688Z,5.90
2022-12-11T12:56:04.641Z,9.23
2022-12-11T12:57:06.784Z,11.50
2022-12-11T12:58:25.593Z,10.20
2022-12-11T12:59:27.940Z,15.02
2022-12-11T13:00:32.900Z,10.75
2022-12-11T13:01:34.604Z,7.45
2022-12-11T13:02:38.076Z,7.75
2022-12-11T13:03:53.599Z,8.15
2022-12-11T13:04:58.981Z,7.45
2022-12-11T13:06:04.081Z,8.35
2022-12-11T13:07:15.738Z,7.90
2022-12-11T13:08:24.928Z,7.50
2022-12-11T13:09:28.370Z,7.70
2022-12-11T13:10:32.808Z,8.05
2022-12-11T13:11:35.893Z,8.02
2022-12-11T13:12:43.212Z,7.63
2022-12-11T13:13:53.214Z,6.82
2022-12-11T13:14:57.005Z,6.32
2022-12-11T13:16:23.572Z,4.30
2022-12-11T13:17:35.658Z,3.53
2022-12-11T13:18:38.506Z,3.40
2022-12-11T13:19:42.923Z,4.20
2022-12-11T13:20:48.125Z,4.18
2022-12-11T13:21:56.081Z,4.38
2022-12-11T13:23:17.372Z,4.45
2022-12-11T13:24:27.023Z,4.30
2022-12-11T13:25:30.570Z,4.10
2022-12-11T13:26:33.280Z,4.28
2022-12-11T13:27:39.929Z,4.10
2022-12-11T13:28:48.654Z,4.20
2022-12-11T13:29:50.199Z,3.95
2022-12-11T13:31:31.358Z,4.13
2022-12-11T13:32:33.600Z,4.55
2022-12-11T13:33:43.036Z,4.60
2022-12-11T13:34:53.532Z,4.13
2022-12-11T13:36:22.794Z,3.92
2022-12-11T13:37:30.622Z,4.32
2022-12-11T13:38:32.583Z,4.80
2022-12-11T13:39:37.489Z,6.03
2022-12-11T13:40:42.928Z,6.35
2022-12-11T13:41:47.500Z,6.88
2022-12-11T13:43:02.806Z,5.82
2022-12-11T13:44:05.923Z,7.13
2022-12-11T13:45:17.902Z,5.32
2022-12-11T13:46:23.965Z,6.25
2022-12-11T13:47:26.214Z,5.70
2022-12-11T13:48:31.945Z,4.57
2022-12-11T13:49:42.345Z,4.53
2022-12-11T13:50:45.823Z,4.75
2022-12-11T13:51:54.015Z,4.40
2022-12-11T13:52:56.399Z,5.07
2022-12-11T13:54:16.974Z,6.30
2022-12-11T13:55:24.508Z,5.50
2022-12-11T13:56:26.027Z,6.60
2022-12-11T13:57:27.897Z,6.78
2022-12-11T13:58:30.451Z,5.70
2022-12-11T13:59:34.445Z,6.20
2022-12-11T14:00:39.303Z,5.95
2022-12-11T14:01:40.980Z,6.68
2022-12-11T14:02:42.660Z,5.55
2022-12-11T14:03:53.761Z,5.70
2022-12-11T14:04:58.558Z,5.53
2022-12-11T14:06:02.753Z,5.38
2022-12-11T14:07:07.595Z,5.78
2022-12-11T14:08:09.334Z,5.05
2022-12-11T14:09:18.765Z,6.03
2022-12-11T14:10:23.764Z,5.57
2022-12-11T14:11:29.062Z,7.82
2022-12-11T14:12:32.094Z,7.97
2022-12-11T14:13:36.061Z,5.80
2022-12-11T14:14:42.107Z,5.22
2022-12-11T14:15:45.454Z,6.38
2022-12-11T14:16:48.429Z,5.20
2022-12-11T14:17:51.833Z,5.03
2022-12-11T14:18:55.977Z,5.75
2022-12-11T14:20:00.516Z,5.57
2022-12-11T14:21:20.489Z,5.70
2022-12-11T14:22:24.317Z,6.25
2022-12-11T14:23:28.047Z,6.00
2022-12-11T14:24:30.278Z,5.88
2022-12-11T14:25:31.832Z,6.03